Terminal Aerodrome Forecast
Issued by NWS Corpus Christi, TX

Home | Current Version | Previous Version | Text Only | Print | Product List | Glossary On
Versions: 1 2 3 4 5 6 7 8 9 10 11 12 13 14 15 16 17 18 19 20 21 22 23 24 25 26
572
FTUS44 KCRP 061733
TAFVCT
TAF
KVCT 061733Z 0618/0718 26007KT P6SM SKC
     FM061900 32008KT P6SM SKC
     FM062300 35010KT P6SM SCT025
     FM070400 36007KT P6SM SCT012
     FM070900 01005KT 3SM BR SCT005 BKN012
     FM071400 03005KT 5SM BR BKN005 OVC012
      TEMPO 0714/0718 3SM -DZ BR OVC005=

USA.gov is the U.S. government's official web portal to all federal, state and local government web resources and services.